createdAt,value
2023-03-21T00:01:08.046Z,9.90
2023-03-21T00:03:36.554Z,9.90
2023-03-21T00:06:07.630Z,9.90
2023-03-21T00:08:35.995Z,9.80
2023-03-21T00:11:06.253Z,9.90
2023-03-21T00:13:38.478Z,9.90
2023-03-21T00:16:12.844Z,9.90
2023-03-21T00:18:52.650Z,9.90
2023-03-21T00:24:16.678Z,9.90
2023-03-21T00:26:44.942Z,9.90
2023-03-21T00:29:14.593Z,9.90
2023-03-21T00:31:42.783Z,9.90
2023-03-21T00:36:45.338Z,9.90
2023-03-21T00:39:14.206Z,9.90
2023-03-21T00:41:43.519Z,9.90
2023-03-21T00:44:13.952Z,9.90
2023-03-21T00:46:57.045Z,9.80
2023-03-21T00:49:48.569Z,9.90
2023-03-21T00:52:22.338Z,9.80
2023-03-21T00:54:58.906Z,9.80
2023-03-21T00:57:38.085Z,9.80
2023-03-21T01:00:10.439Z,9.80
2023-03-21T01:03:02.643Z,9.80
2023-03-21T01:05:54.352Z,9.80
2023-03-21T01:08:29.328Z,9.80
2023-03-21T01:11:03.956Z,9.70
2023-03-21T01:13:34.615Z,9.70
2023-03-21T01:16:06.614Z,9.70
2023-03-21T01:18:38.213Z,9.70
2023-03-21T01:21:10.558Z,9.70
2023-03-21T01:23:39.432Z,9.70
2023-03-21T01:26:08.061Z,9.70
2023-03-21T01:28:37.480Z,9.70
2023-03-21T01:31:07.093Z,9.70
2023-03-21T01:33:36.974Z,9.70
2023-03-21T01:36:12.807Z,9.70
2023-03-21T01:38:42.136Z,9.70
2023-03-21T01:41:20.357Z,9.70
2023-03-21T01:43:49.002Z,9.70
2023-03-21T01:46:47.742Z,9.70
2023-03-21T01:49:26.640Z,9.70
2023-03-21T01:52:03.582Z,9.70
2023-03-21T01:54:41.645Z,9.70
2023-03-21T01:57:14.473Z,9.70
2023-03-21T01:59:46.399Z,9.70
2023-03-21T02:02:20.858Z,9.70
2023-03-21T02:04:55.991Z,9.70
2023-03-21T02:07:28.901Z,9.70
2023-03-21T02:09:59.144Z,9.70
2023-03-21T02:12:27.756Z,9.70
2023-03-21T02:14:56.769Z,9.70
2023-03-21T02:17:31.080Z,9.70
2023-03-21T02:20:36.666Z,9.70
2023-03-21T02:23:27.215Z,9.70
2023-03-21T02:26:23.344Z,9.70
2023-03-21T02:28:57.140Z,9.70
2023-03-21T02:31:32.429Z,9.70
2023-03-21T02:34:30.044Z,9.70
2023-03-21T02:37:08.373Z,9.70
2023-03-21T02:39:46.015Z,9.70
2023-03-21T02:42:19.537Z,9.70
2023-03-21T02:44:51.295Z,9.70
2023-03-21T02:47:23.173Z,9.70
2023-03-21T02:49:56.992Z,9.70
2023-03-21T02:52:38.595Z,9.70
2023-03-21T02:55:14.190Z,9.70
2023-03-21T02:57:45.353Z,9.70
2023-03-21T03:00:19.721Z,9.70
2023-03-21T03:02:54.639Z,9.70
2023-03-21T03:05:28.158Z,9.70
2023-03-21T03:08:13.074Z,9.70
2023-03-21T03:10:57.385Z,9.70
2023-03-21T03:13:39.588Z,9.70
2023-03-21T03:16:19.870Z,9.70
2023-03-21T03:18:52.404Z,9.70
2023-03-21T03:21:27.752Z,9.70
2023-03-21T03:24:02.005Z,9.70
2023-03-21T03:26:34.469Z,9.70
2023-03-21T03:29:07.625Z,9.70
2023-03-21T03:31:40.229Z,9.70
2023-03-21T03:34:13.053Z,9.70
2023-03-21T03:36:44.331Z,9.60
2023-03-21T03:39:15.908Z,9.70
2023-03-21T03:42:07.976Z,9.70
2023-03-21T03:44:37.457Z,9.70
2023-03-21T03:47:09.088Z,9.70
2023-03-21T03:49:40.796Z,9.70
2023-03-21T03:52:14.810Z,9.70
2023-03-21T03:54:46.920Z,9.70
2023-03-21T03:57:16.161Z,9.70
2023-03-21T03:59:46.502Z,9.70
2023-03-21T04:02:17.226Z,9.70
2023-03-21T04:04:45.807Z,9.70
2023-03-21T04:07:14.089Z,9.70
2023-03-21T04:09:44.886Z,9.70
2023-03-21T04:12:14.899Z,9.60
2023-03-21T04:14:46.156Z,9.60
2023-03-21T04:17:15.758Z,9.60
2023-03-21T04:19:45.428Z,9.60
2023-03-21T04:22:14.228Z,9.60
2023-03-21T04:24:42.773Z,9.60
2023-03-21T04:27:11.356Z,9.60
2023-03-21T04:29:41.291Z,9.60
2023-03-21T04:32:16.374Z,9.60
2023-03-21T04:34:49.949Z,9.60
2023-03-21T04:37:19.226Z,9.60
2023-03-21T04:39:48.349Z,9.60
2023-03-21T04:42:18.646Z,9.60
2023-03-21T04:44:48.779Z,9.60
2023-03-21T04:47:20.288Z,9.60
2023-03-21T04:49:49.067Z,9.60
2023-03-21T04:52:17.305Z,9.60
2023-03-21T04:54:45.567Z,9.60
2023-03-21T04:57:13.682Z,9.60
2023-03-21T04:59:42.093Z,9.60
2023-03-21T05:02:11.845Z,9.70
2023-03-21T05:04:40.202Z,9.70
2023-03-21T05:07:08.700Z,9.70
2023-03-21T05:09:36.909Z,9.70
2023-03-21T05:12:05.476Z,9.70
2023-03-21T05:14:33.649Z,9.70
2023-03-21T05:17:05.523Z,9.70
2023-03-21T05:19:40.762Z,9.70
2023-03-21T05:22:10.928Z,9.70
2023-03-21T05:24:42.061Z,9.70
2023-03-21T05:27:10.345Z,9.70
2023-03-21T05:29:38.657Z,9.70
2023-03-21T05:32:07.109Z,9.70
2023-03-21T05:34:36.851Z,9.70
2023-03-21T05:37:04.959Z,9.70
2023-03-21T05:39:33.237Z,9.70
2023-03-21T05:42:01.468Z,9.70
2023-03-21T05:44:29.586Z,9.70
2023-03-21T05:46:58.484Z,9.70
2023-03-21T05:49:27.029Z,9.70
2023-03-21T05:51:56.541Z,9.70
2023-03-21T05:54:25.016Z,9.70
2023-03-21T05:56:53.103Z,9.70
2023-03-21T05:59:21.356Z,9.70
2023-03-21T06:01:49.691Z,9.70
2023-03-21T06:04:17.943Z,9.70
2023-03-21T06:06:46.175Z,9.70
2023-03-21T06:09:15.704Z,9.70
2023-03-21T06:11:49.519Z,9.70
2023-03-21T06:14:17.865Z,9.70
2023-03-21T06:16:46.424Z,9.70
2023-03-21T06:19:14.638Z,9.80
2023-03-21T06:21:43.264Z,9.70
2023-03-21T06:24:11.580Z,9.70
2023-03-21T06:26:42.492Z,9.80
2023-03-21T06:29:11.008Z,9.80
2023-03-21T06:31:39.560Z,9.80
2023-03-21T06:34:08.200Z,9.80
2023-03-21T06:36:36.621Z,9.80
2023-03-21T06:39:05.942Z,9.80
2023-03-21T06:41:34.100Z,9.80
2023-03-21T06:44:04.359Z,9.80
2023-03-21T06:46:32.609Z,9.90
2023-03-21T06:49:00.869Z,9.90
2023-03-21T06:51:28.857Z,9.90
2023-03-21T06:53:57.008Z,10.00
2023-03-21T06:56:25.368Z,10.00
2023-03-21T06:58:53.549Z,10.00
2023-03-21T07:01:23.307Z,10.00
2023-03-21T07:03:53.706Z,10.10
2023-03-21T07:06:22.354Z,10.10
2023-03-21T07:08:50.475Z,10.20
2023-03-21T07:11:18.795Z,10.20
2023-03-21T07:13:48.635Z,10.20
2023-03-21T07:16:21.609Z,10.20
2023-03-21T07:18:51.475Z,10.20
2023-03-21T07:21:19.762Z,10.30
2023-03-21T07:23:50.297Z,10.30
2023-03-21T07:26:19.308Z,10.30
2023-03-21T07:28:47.524Z,10.30
2023-03-21T07:31:17.920Z,10.40
2023-03-21T07:33:46.341Z,10.40
2023-03-21T07:36:17.064Z,10.30
2023-03-21T07:38:46.531Z,10.40
2023-03-21T07:43:48.097Z,10.40
2023-03-21T07:46:16.234Z,10.40
2023-03-21T07:48:44.527Z,10.40
2023-03-21T07:51:12.637Z,10.40
2023-03-21T07:53:43.804Z,10.40
2023-03-21T07:56:12.024Z,10.50
2023-03-21T07:58:40.440Z,10.50
2023-03-21T08:01:08.683Z,10.50
2023-03-21T08:03:38.085Z,10.50
2023-03-21T08:06:06.977Z,10.50
2023-03-21T08:08:35.288Z,10.50
2023-03-21T08:11:05.301Z,10.50
2023-03-21T08:13:33.519Z,10.50
2023-03-21T08:16:01.693Z,10.50
2023-03-21T08:18:29.829Z,10.60
2023-03-21T08:20:59.186Z,10.50
2023-03-21T08:23:27.656Z,10.50
2023-03-21T08:25:56.750Z,10.50
2023-03-21T08:28:26.279Z,10.60
2023-03-21T08:30:54.643Z,10.60
2023-03-21T08:33:23.046Z,10.60
2023-03-21T08:35:51.662Z,10.60
2023-03-21T08:38:19.813Z,10.60
2023-03-21T08:40:47.966Z,10.70
2023-03-21T08:43:16.161Z,10.80
2023-03-21T08:45:45.664Z,10.90
2023-03-21T08:48:13.931Z,10.90
2023-03-21T08:50:41.929Z,11.00
2023-03-21T08:53:10.108Z,11.00
2023-03-21T08:55:38.685Z,11.00
2023-03-21T08:58:07.585Z,11.00
2023-03-21T09:00:35.870Z,11.00
2023-03-21T09:03:05.370Z,11.10
2023-03-21T09:05:33.761Z,11.10
2023-03-21T09:08:03.444Z,11.10
2023-03-21T09:10:33.812Z,11.10
2023-03-21T09:13:02.267Z,11.10
2023-03-21T09:15:30.818Z,11.10
2023-03-21T09:18:13.194Z,11.20
2023-03-21T09:20:43.825Z,11.20
2023-03-21T09:23:13.313Z,11.20
2023-03-21T09:25:42.366Z,11.20
2023-03-21T09:28:11.456Z,11.20
2023-03-21T09:30:39.688Z,11.30
2023-03-21T09:33:13.128Z,11.30
2023-03-21T09:35:42.797Z,11.30
2023-03-21T09:38:11.040Z,11.40
2023-03-21T09:40:52.771Z,11.40
2023-03-21T09:43:36.005Z,11.40
2023-03-21T09:46:11.430Z,11.50
2023-03-21T09:48:56.661Z,11.50
2023-03-21T09:51:31.304Z,11.50
2023-03-21T09:54:03.757Z,11.60
2023-03-21T09:56:32.063Z,11.60
2023-03-21T09:59:02.518Z,11.60
2023-03-21T10:01:34.475Z,11.70
2023-03-21T10:04:05.889Z,11.70
2023-03-21T10:06:40.294Z,11.80
2023-03-21T10:09:16.190Z,11.90
2023-03-21T10:11:46.685Z,11.90
2023-03-21T10:14:20.591Z,12.00
2023-03-21T10:16:57.383Z,12.10
2023-03-21T10:19:27.308Z,12.10
2023-03-21T10:22:01.119Z,12.10
2023-03-21T10:24:32.692Z,12.10
2023-03-21T10:27:02.491Z,12.20
2023-03-21T10:29:33.839Z,12.30
2023-03-21T10:32:02.108Z,12.30
2023-03-21T10:34:34.183Z,12.30
2023-03-21T10:37:05.853Z,12.30
2023-03-21T10:39:37.604Z,12.30
2023-03-21T10:42:05.909Z,12.30
2023-03-21T10:44:36.273Z,12.40
2023-03-21T10:47:07.398Z,12.60
2023-03-21T10:49:56.436Z,12.70
2023-03-21T10:52:31.298Z,12.60
2023-03-21T10:55:17.691Z,12.70
2023-03-21T10:57:47.337Z,12.80
2023-03-21T11:00:21.604Z,12.70
2023-03-21T11:02:52.818Z,12.80
2023-03-21T11:05:24.121Z,12.90
2023-03-21T11:08:04.861Z,12.80
2023-03-21T11:10:35.652Z,12.90
2023-03-21T11:13:08.407Z,13.00
2023-03-21T11:15:53.765Z,13.10
2023-03-21T11:18:24.832Z,13.20
2023-03-21T11:20:55.728Z,13.30
2023-03-21T11:23:29.935Z,13.30
2023-03-21T11:26:00.502Z,13.50
2023-03-21T11:28:37.438Z,13.60
2023-03-21T11:31:09.313Z,13.50
2023-03-21T11:33:40.353Z,13.40
2023-03-21T11:36:26.222Z,13.60
2023-03-21T11:39:03.786Z,13.70
2023-03-21T11:41:34.574Z,13.70
2023-03-21T11:44:03.702Z,13.80
2023-03-21T11:46:33.014Z,13.80
2023-03-21T11:49:02.470Z,13.90
2023-03-21T11:51:39.852Z,13.80
2023-03-21T11:54:17.662Z,13.70
2023-03-21T11:56:48.559Z,13.70
2023-03-21T11:59:38.190Z,13.60
2023-03-21T12:02:32.659Z,13.60
2023-03-21T12:05:05.535Z,13.50
2023-03-21T12:07:46.315Z,13.50
2023-03-21T12:10:37.006Z,13.50
2023-03-21T12:13:19.870Z,13.60
2023-03-21T12:16:11.613Z,13.60
2023-03-21T12:18:57.769Z,13.60
2023-03-21T12:21:32.530Z,13.70
2023-03-21T12:24:06.910Z,13.70
2023-03-21T12:26:44.908Z,13.60
2023-03-21T12:29:30.126Z,13.60
2023-03-21T12:32:16.681Z,13.50
2023-03-21T12:35:03.732Z,13.50
2023-03-21T12:37:41.224Z,13.50
2023-03-21T12:40:23.207Z,13.40
2023-03-21T12:43:05.249Z,13.40
2023-03-21T12:45:46.510Z,13.50
2023-03-21T12:48:23.760Z,13.70
2023-03-21T12:50:55.481Z,14.30
2023-03-21T12:53:35.757Z,14.90
2023-03-21T12:56:09.828Z,14.80
2023-03-21T12:58:47.341Z,14.70
2023-03-21T13:01:19.035Z,14.80
2023-03-21T13:03:52.623Z,15.30
2023-03-21T13:06:24.690Z,15.60
2023-03-21T13:08:57.679Z,15.60
2023-03-21T13:11:29.691Z,15.90
2023-03-21T13:14:05.652Z,15.50
2023-03-21T13:16:38.004Z,15.20
2023-03-21T13:19:17.451Z,15.30
2023-03-21T13:21:52.675Z,15.30
2023-03-21T13:24:29.133Z,15.10
2023-03-21T13:27:04.278Z,15.00
2023-03-21T13:29:42.593Z,15.00
2023-03-21T13:32:16.962Z,14.90
2023-03-21T13:34:45.714Z,14.80
2023-03-21T13:37:20.077Z,14.70
2023-03-21T13:39:50.614Z,14.50
2023-03-21T13:42:24.506Z,14.50
2023-03-21T13:44:59.201Z,14.50
2023-03-21T13:47:54.118Z,14.40
2023-03-21T13:50:28.691Z,14.30
2023-03-21T13:53:22.771Z,14.20
2023-03-21T13:56:10.774Z,14.30
2023-03-21T13:58:41.243Z,14.30
2023-03-21T14:01:26.309Z,14.40
2023-03-21T14:04:01.060Z,14.50
2023-03-21T14:06:35.872Z,14.60
2023-03-21T14:09:04.836Z,14.50
2023-03-21T14:11:36.718Z,14.50
2023-03-21T14:14:05.863Z,14.50
2023-03-21T14:16:35.598Z,14.70
2023-03-21T14:19:06.763Z,14.60
2023-03-21T14:21:36.892Z,14.60
2023-03-21T14:24:07.005Z,14.60
2023-03-21T14:26:38.470Z,14.50
2023-03-21T14:29:22.822Z,14.40
2023-03-21T14:31:56.285Z,14.40
2023-03-21T14:34:26.162Z,14.40
2023-03-21T14:36:58.563Z,14.40
2023-03-21T14:39:29.820Z,14.50
2023-03-21T14:42:02.232Z,14.40
2023-03-21T14:44:44.044Z,14.40
2023-03-21T14:47:23.456Z,14.50
2023-03-21T14:49:52.226Z,14.70
2023-03-21T14:52:24.440Z,14.80
2023-03-21T14:54:53.824Z,14.70
2023-03-21T14:57:24.940Z,14.70
2023-03-21T14:59:57.553Z,14.60
2023-03-21T15:02:36.714Z,14.50
2023-03-21T15:05:11.014Z,14.40
2023-03-21T15:07:39.350Z,14.40
2023-03-21T15:10:10.221Z,14.30
2023-03-21T15:12:38.931Z,14.30
2023-03-21T15:15:08.153Z,14.30
2023-03-21T15:17:37.749Z,14.20
2023-03-21T15:20:10.179Z,14.30
2023-03-21T15:22:40.361Z,14.30
2023-03-21T15:25:15.734Z,14.20
2023-03-21T15:27:44.766Z,14.20
2023-03-21T15:30:21.836Z,14.20
2023-03-21T15:32:51.822Z,14.10
2023-03-21T15:35:26.407Z,14.20
2023-03-21T15:37:56.777Z,14.20
2023-03-21T15:40:28.208Z,14.20
2023-03-21T15:43:07.376Z,14.20
2023-03-21T15:45:35.562Z,14.20
2023-03-21T15:48:10.363Z,14.10
2023-03-21T15:50:41.074Z,14.10
2023-03-21T15:53:15.543Z,14.10
2023-03-21T15:55:48.343Z,14.10
2023-03-21T15:58:19.194Z,14.00
2023-03-21T16:00:54.393Z,13.90
2023-03-21T16:03:27.447Z,13.90
2023-03-21T16:06:10.136Z,13.80
2023-03-21T16:08:44.757Z,13.80
2023-03-21T16:11:19.363Z,13.80
2023-03-21T16:13:47.573Z,13.70
2023-03-21T16:16:18.083Z,13.70
2023-03-21T16:18:47.924Z,13.60
2023-03-21T16:21:18.301Z,13.60
2023-03-21T16:23:46.853Z,13.50
2023-03-21T16:26:17.530Z,13.20
2023-03-21T16:28:46.273Z,13.00
2023-03-21T16:31:16.509Z,12.90
2023-03-21T16:33:45.746Z,12.70
2023-03-21T16:36:18.600Z,12.70
2023-03-21T16:38:47.547Z,12.60
2023-03-21T16:41:16.337Z,12.50
2023-03-21T16:43:44.981Z,12.50
2023-03-21T16:46:15.016Z,12.50
2023-03-21T16:48:44.250Z,12.50
2023-03-21T16:51:17.437Z,12.50
2023-03-21T16:53:46.037Z,12.50
2023-03-21T16:56:16.685Z,12.50
2023-03-21T16:58:45.423Z,12.50
2023-03-21T17:01:16.424Z,12.50
2023-03-21T17:03:44.793Z,12.60
2023-03-21T17:06:18.794Z,12.60
2023-03-21T17:08:47.523Z,12.60
2023-03-21T17:11:20.158Z,12.60
2023-03-21T17:13:48.622Z,12.50
2023-03-21T17:16:18.989Z,12.50
2023-03-21T17:18:47.482Z,12.40
2023-03-21T17:21:18.388Z,12.40
2023-03-21T17:23:46.881Z,12.30
2023-03-21T17:26:16.662Z,12.30
2023-03-21T17:28:44.806Z,12.20
2023-03-21T17:31:15.485Z,12.20
2023-03-21T17:33:44.040Z,12.10
2023-03-21T17:36:15.702Z,12.10
2023-03-21T17:38:46.592Z,12.00
2023-03-21T17:41:16.483Z,12.00
2023-03-21T17:43:45.046Z,12.00
2023-03-21T17:46:15.571Z,11.90
2023-03-21T17:48:44.909Z,11.90
2023-03-21T17:51:16.086Z,11.90
2023-03-21T17:53:46.816Z,11.90
2023-03-21T17:56:16.966Z,11.90
2023-03-21T17:58:45.333Z,11.90
2023-03-21T18:01:13.498Z,11.90
2023-03-21T18:03:42.323Z,11.90
2023-03-21T18:06:16.065Z,11.90
2023-03-21T18:08:46.767Z,11.90
2023-03-21T18:11:15.141Z,11.90
2023-03-21T18:13:44.803Z,11.90
2023-03-21T18:16:15.245Z,11.90
2023-03-21T18:18:45.125Z,12.00
2023-03-21T18:21:13.575Z,11.90
2023-03-21T18:23:42.143Z,11.90
2023-03-21T18:26:16.192Z,12.00
2023-03-21T18:28:44.656Z,12.00
2023-03-21T18:31:19.888Z,12.00
2023-03-21T18:33:50.186Z,12.00
2023-03-21T18:36:25.544Z,11.90
2023-03-21T18:38:56.832Z,11.80
2023-03-21T18:41:26.428Z,11.80
2023-03-21T18:44:09.518Z,11.80
2023-03-21T18:46:46.950Z,11.80
2023-03-21T18:49:58.801Z,11.80
2023-03-21T18:52:03.712Z,11.90
2023-03-21T18:54:32.121Z,11.90
2023-03-21T18:59:49.825Z,11.90
2023-03-21T19:02:17.911Z,11.90
2023-03-21T19:04:46.452Z,11.90
2023-03-21T19:07:14.771Z,11.90
2023-03-21T19:10:05.173Z,11.80
2023-03-21T19:12:32.738Z,11.90
2023-03-21T19:15:00.875Z,11.80
2023-03-21T19:20:17.382Z,11.70
2023-03-21T19:22:46.453Z,11.70
2023-03-21T19:25:15.984Z,11.70
2023-03-21T19:27:45.941Z,11.60
2023-03-21T19:30:16.044Z,11.60
2023-03-21T19:32:44.856Z,11.50
2023-03-21T19:35:14.252Z,11.50
2023-03-21T19:37:42.463Z,11.50
2023-03-21T19:40:11.252Z,11.40
2023-03-21T19:42:40.286Z,11.50
2023-03-21T19:45:11.420Z,11.40
2023-03-21T19:47:39.609Z,11.40
2023-03-21T19:50:47.806Z,11.30
2023-03-21T19:52:57.259Z,11.40
2023-03-21T19:55:26.315Z,11.30
2023-03-21T19:57:54.421Z,11.30
2023-03-21T20:00:24.067Z,11.30
2023-03-21T20:02:52.406Z,11.30
2023-03-21T20:05:22.145Z,11.40
2023-03-21T20:07:50.474Z,11.30
2023-03-21T20:10:18.700Z,11.30
2023-03-21T20:12:46.968Z,11.30
2023-03-21T20:15:19.474Z,11.30
2023-03-21T20:17:50.947Z,11.40
2023-03-21T20:20:19.907Z,11.40
2023-03-21T20:23:07.942Z,11.40
2023-03-21T20:25:39.756Z,11.30
2023-03-21T20:28:23.871Z,11.30
2023-03-21T20:30:56.696Z,11.30
2023-03-21T20:33:26.729Z,11.40
2023-03-21T20:38:47.934Z,11.30
2023-03-21T20:41:16.063Z,11.30
2023-03-21T20:44:39.159Z,11.20
2023-03-21T20:46:32.586Z,11.30
2023-03-21T20:49:02.061Z,11.20
2023-03-21T20:52:45.814Z,11.10
2023-03-21T20:54:18.746Z,11.10
2023-03-21T20:56:47.845Z,11.10
2023-03-21T20:59:26.103Z,11.10
2023-03-21T21:01:55.767Z,11.00
2023-03-21T21:04:44.122Z,11.00
2023-03-21T21:07:15.929Z,10.90
2023-03-21T21:09:46.242Z,10.80
2023-03-21T21:12:15.657Z,10.80
2023-03-21T21:14:45.388Z,10.80
2023-03-21T21:20:12.381Z,10.70
2023-03-21T21:22:42.860Z,10.60
2023-03-21T21:25:14.239Z,10.70
2023-03-21T21:27:42.330Z,10.70
2023-03-21T21:30:12.989Z,10.70
2023-03-21T21:32:42.024Z,10.60
2023-03-21T21:35:11.969Z,10.70
2023-03-21T21:37:41.937Z,10.70
2023-03-21T21:40:12.786Z,10.70
2023-03-21T21:42:42.599Z,10.80
2023-03-21T21:45:12.262Z,10.80
2023-03-21T21:47:40.889Z,10.80
2023-03-21T21:50:11.277Z,10.80
2023-03-21T21:52:39.520Z,10.80
2023-03-21T21:55:08.186Z,10.80
2023-03-21T21:57:36.291Z,10.90
2023-03-21T22:00:12.617Z,10.80
2023-03-21T22:02:41.012Z,10.90
2023-03-21T22:05:11.446Z,10.90
2023-03-21T22:07:39.553Z,10.90
2023-03-21T22:10:08.697Z,10.90
2023-03-21T22:12:36.845Z,10.90
2023-03-21T22:15:06.928Z,10.90
2023-03-21T22:17:35.267Z,10.90
2023-03-21T22:20:06.828Z,10.90
2023-03-21T22:22:37.556Z,10.90
2023-03-21T22:25:08.576Z,10.90
2023-03-21T22:27:36.972Z,10.80
2023-03-21T22:30:07.501Z,10.80
2023-03-21T22:32:36.709Z,10.70
2023-03-21T22:35:05.952Z,10.70
2023-03-21T22:37:37.404Z,10.80
2023-03-21T22:40:08.276Z,10.70
2023-03-21T22:42:37.143Z,10.70
2023-03-21T22:45:07.666Z,10.70
2023-03-21T22:47:35.816Z,10.70
2023-03-21T22:50:04.841Z,10.60
2023-03-21T22:52:32.998Z,10.50
2023-03-21T22:55:02.436Z,10.50
2023-03-21T22:57:30.677Z,10.60
2023-03-21T22:59:58.745Z,10.60
2023-03-21T23:02:27.125Z,10.60
2023-03-21T23:04:55.892Z,10.50
2023-03-21T23:07:23.993Z,10.50
2023-03-21T23:09:52.288Z,10.50
2023-03-21T23:12:21.728Z,10.40
2023-03-21T23:14:49.891Z,10.30
2023-03-21T23:17:17.922Z,10.30
2023-03-21T23:19:46.149Z,10.30
2023-03-21T23:22:14.168Z,10.30
2023-03-21T23:24:42.240Z,10.20
2023-03-21T23:27:10.587Z,10.20
2023-03-21T23:29:40.044Z,10.20
2023-03-21T23:32:08.143Z,10.10
2023-03-21T23:34:36.686Z,10.10
2023-03-21T23:37:04.903Z,10.10
2023-03-21T23:39:33.697Z,10.00
2023-03-21T23:42:01.966Z,10.00
2023-03-21T23:44:30.077Z,10.00
2023-03-21T23:46:59.544Z,9.90
2023-03-21T23:49:27.605Z,9.90
2023-03-21T23:51:55.845Z,10.00
2023-03-21T23:54:23.931Z,10.00
2023-03-21T23:56:52.009Z,10.00
2023-03-21T23:59:20.091Z,9.90
